createdAt,value
2023-02-23T00:02:21.417Z,70.00
2023-02-23T00:04:49.737Z,60.55
2023-02-23T00:07:20.507Z,67.43
2023-02-23T00:12:17.220Z,78.70
2023-02-23T00:14:47.349Z,81.93
2023-02-23T00:17:17.605Z,74.18
2023-02-23T00:19:49.261Z,77.28
2023-02-23T00:22:18.482Z,76.38
2023-02-23T00:24:48.012Z,75.40
2023-02-23T00:27:21.208Z,70.22
2023-02-23T00:29:52.112Z,72.20
2023-02-23T00:32:24.018Z,70.60
2023-02-23T00:34:52.556Z,69.90
2023-02-23T00:37:22.883Z,66.97
2023-02-23T00:39:52.121Z,65.43
2023-02-23T00:42:21.101Z,65.90
2023-02-23T00:44:50.858Z,69.65
2023-02-23T00:47:19.189Z,64.63
2023-02-23T00:49:47.525Z,63.63
2023-02-23T00:52:15.984Z,66.63
2023-02-23T00:54:44.533Z,70.60
2023-02-23T00:57:12.870Z,70.43
2023-02-23T00:59:41.274Z,69.72
2023-02-23T01:02:11.966Z,71.10
2023-02-23T01:04:40.388Z,62.87
2023-02-23T01:07:08.711Z,65.32
2023-02-23T01:09:38.120Z,64.18
2023-02-23T01:12:07.429Z,62.15
2023-02-23T01:14:38.050Z,60.35
2023-02-23T01:17:07.463Z,61.10
2023-02-23T01:19:39.116Z,60.45
2023-02-23T01:22:07.534Z,67.70
2023-02-23T01:24:36.089Z,64.78
2023-02-23T01:27:06.474Z,65.28
2023-02-23T01:29:35.660Z,63.50
2023-02-23T01:32:05.060Z,68.78
2023-02-23T01:34:33.671Z,63.10
2023-02-23T01:37:04.744Z,61.20
2023-02-23T01:39:34.751Z,66.35
2023-02-23T01:42:05.350Z,62.05
2023-02-23T01:45:20.820Z,61.25
2023-02-23T01:47:49.680Z,63.58
2023-02-23T01:50:19.874Z,65.05
2023-02-23T01:52:53.464Z,70.97
2023-02-23T01:55:24.454Z,64.35
2023-02-23T01:57:59.573Z,66.80
2023-02-23T02:00:28.303Z,65.43
2023-02-23T02:02:58.195Z,65.50
2023-02-23T02:05:30.129Z,63.67
2023-02-23T02:08:00.484Z,65.00
2023-02-23T02:10:46.999Z,73.18
2023-02-23T02:13:24.750Z,65.07
2023-02-23T02:16:46.974Z,63.92
2023-02-23T02:20:28.778Z,64.60
2023-02-23T02:23:49.116Z,65.93
2023-02-23T02:26:34.418Z,70.10
2023-02-23T02:29:59.250Z,64.90
2023-02-23T02:32:49.305Z,66.47
2023-02-23T02:35:53.925Z,68.43
2023-02-23T02:38:50.574Z,69.32
2023-02-23T02:41:31.454Z,72.70
2023-02-23T02:44:09.818Z,69.50
2023-02-23T02:46:42.172Z,73.57
2023-02-23T02:49:18.272Z,73.38
2023-02-23T02:51:54.262Z,72.10
2023-02-23T02:54:31.426Z,72.13
2023-02-23T02:57:04.324Z,73.10
2023-02-23T02:59:50.934Z,73.72
2023-02-23T03:02:41.738Z,72.65
2023-02-23T03:05:33.222Z,73.38
2023-02-23T03:08:29.662Z,76.47
2023-02-23T03:11:22.198Z,76.22
2023-02-23T03:14:30.446Z,74.13
2023-02-23T03:17:26.316Z,76.03
2023-02-23T03:20:17.235Z,76.97
2023-02-23T03:23:13.569Z,73.72
2023-02-23T03:26:10.799Z,75.85
2023-02-23T03:29:09.851Z,77.00
2023-02-23T03:32:02.958Z,76.10
2023-02-23T03:34:55.984Z,81.15
2023-02-23T03:37:50.392Z,78.50
2023-02-23T03:40:40.946Z,79.43
2023-02-23T03:43:32.348Z,76.47
2023-02-23T03:46:22.379Z,73.50
2023-02-23T03:49:10.697Z,74.28
2023-02-23T03:52:00.047Z,78.40
2023-02-23T03:54:52.894Z,74.57
2023-02-23T03:57:41.354Z,75.03
2023-02-23T04:00:34.520Z,78.90
2023-02-23T04:03:23.639Z,73.90
2023-02-23T04:06:11.762Z,73.45
2023-02-23T04:08:58.492Z,72.50
2023-02-23T04:11:49.730Z,71.43
2023-02-23T04:14:21.803Z,70.30
2023-02-23T04:16:49.675Z,64.43
2023-02-23T04:19:20.086Z,69.43
2023-02-23T04:21:48.498Z,74.65
2023-02-23T04:24:16.869Z,76.68
2023-02-23T04:26:45.311Z,72.57
2023-02-23T04:29:14.352Z,79.47
2023-02-23T04:31:42.850Z,70.43
2023-02-23T04:34:11.356Z,72.20
2023-02-23T04:36:41.114Z,68.53
2023-02-23T04:39:09.441Z,71.57
2023-02-23T04:41:37.961Z,72.90
2023-02-23T04:44:06.826Z,69.35
2023-02-23T04:46:35.172Z,69.57
2023-02-23T04:49:03.801Z,71.68
2023-02-23T04:51:33.908Z,67.35
2023-02-23T04:54:04.091Z,69.80
2023-02-23T04:56:33.312Z,70.70
2023-02-23T04:59:01.580Z,73.57
2023-02-23T05:01:30.360Z,76.85
2023-02-23T05:03:58.729Z,72.63
2023-02-23T05:06:27.181Z,75.03
2023-02-23T05:08:55.502Z,77.10
2023-02-23T05:11:26.612Z,75.57
2023-02-23T05:13:55.242Z,80.75
2023-02-23T05:16:23.691Z,79.15
2023-02-23T05:18:52.413Z,82.45
2023-02-23T05:21:20.885Z,81.07
2023-02-23T05:23:49.459Z,81.70
2023-02-23T05:26:18.879Z,79.38
2023-02-23T05:28:48.777Z,84.60
2023-02-23T05:31:17.493Z,85.18
2023-02-23T05:33:46.009Z,85.68
2023-02-23T05:36:17.129Z,82.53
2023-02-23T05:38:46.965Z,84.53
2023-02-23T05:41:19.755Z,80.97
2023-02-23T05:43:52.363Z,86.00
2023-02-23T05:46:24.177Z,78.00
2023-02-23T05:48:56.182Z,82.05
2023-02-23T05:51:24.530Z,79.25
2023-02-23T05:53:52.804Z,81.38
2023-02-23T05:56:21.392Z,77.97
2023-02-23T05:58:52.685Z,74.50
2023-02-23T06:01:22.485Z,84.03
2023-02-23T06:03:51.038Z,78.67
2023-02-23T06:06:20.315Z,85.18
2023-02-23T06:08:49.398Z,81.88
2023-02-23T06:11:18.126Z,82.93
2023-02-23T06:13:46.632Z,82.05
2023-02-23T06:16:16.718Z,82.72
2023-02-23T06:18:45.290Z,80.13
2023-02-23T06:21:14.213Z,79.95
2023-02-23T06:23:42.625Z,82.20
2023-02-23T06:26:11.201Z,85.07
2023-02-23T06:28:39.504Z,83.57
2023-02-23T06:31:07.884Z,79.28
2023-02-23T06:33:37.720Z,86.40
2023-02-23T06:36:06.898Z,85.57
2023-02-23T06:38:35.357Z,86.35
2023-02-23T06:41:09.807Z,85.97
2023-02-23T06:43:38.293Z,84.32
2023-02-23T06:46:07.029Z,82.53
2023-02-23T06:48:35.576Z,78.25
2023-02-23T06:51:05.614Z,83.20
2023-02-23T06:53:34.099Z,81.05
2023-02-23T06:56:03.571Z,85.43
2023-02-23T06:58:31.984Z,84.65
2023-02-23T07:01:00.519Z,77.95
2023-02-23T07:03:28.982Z,79.93
2023-02-23T07:05:57.353Z,81.10
2023-02-23T07:08:27.107Z,84.25
2023-02-23T07:10:56.763Z,86.57
2023-02-23T07:13:25.094Z,84.82
2023-02-23T07:15:58.824Z,82.43
2023-02-23T07:18:27.265Z,83.43
2023-02-23T07:20:55.637Z,80.25
2023-02-23T07:23:24.082Z,78.78
2023-02-23T07:25:56.578Z,80.65
2023-02-23T07:28:25.810Z,80.53
2023-02-23T07:30:57.315Z,77.90
2023-02-23T07:33:26.212Z,74.60
2023-02-23T07:35:54.629Z,75.93
2023-02-23T07:38:23.026Z,72.45
2023-02-23T07:40:53.051Z,73.68
2023-02-23T07:43:22.828Z,76.35
2023-02-23T07:45:51.843Z,72.45
2023-02-23T07:48:20.737Z,75.72
2023-02-23T07:50:49.184Z,71.97
2023-02-23T07:53:17.565Z,73.70
2023-02-23T07:55:45.898Z,71.00
2023-02-23T07:58:15.650Z,66.53
2023-02-23T08:00:44.307Z,64.97
2023-02-23T08:03:12.900Z,63.28
2023-02-23T08:05:41.645Z,67.13
2023-02-23T08:08:11.018Z,66.93
2023-02-23T08:10:39.671Z,59.28
2023-02-23T08:13:08.481Z,58.13
2023-02-23T08:15:38.167Z,57.13
2023-02-23T08:18:06.659Z,48.70
2023-02-23T08:20:35.688Z,42.67
2023-02-23T08:23:04.100Z,45.15
2023-02-23T08:25:32.876Z,48.08
2023-02-23T08:28:04.776Z,39.88
2023-02-23T08:30:33.896Z,38.78
2023-02-23T08:33:05.570Z,33.20
2023-02-23T08:35:33.935Z,35.22
2023-02-23T08:38:02.250Z,35.50
2023-02-23T08:40:30.653Z,35.50
2023-02-23T08:42:58.915Z,35.03
2023-02-23T08:45:29.319Z,32.70
2023-02-23T08:47:58.362Z,28.48
2023-02-23T08:50:28.131Z,29.52
2023-02-23T08:52:56.549Z,26.88
2023-02-23T08:55:25.072Z,26.27
2023-02-23T08:57:53.400Z,26.75
2023-02-23T09:00:23.332Z,27.13
2023-02-23T09:02:51.761Z,29.15
2023-02-23T09:05:20.450Z,25.20
2023-02-23T09:07:50.866Z,26.27
2023-02-23T09:10:24.387Z,26.40
2023-02-23T09:12:52.987Z,26.98
2023-02-23T09:15:21.834Z,27.48
2023-02-23T09:17:50.544Z,24.50
2023-02-23T09:20:19.601Z,23.67
2023-02-23T09:22:49.705Z,26.23
2023-02-23T09:25:19.347Z,23.50
2023-02-23T09:27:47.855Z,25.13
2023-02-23T09:30:20.396Z,24.52
2023-02-23T09:32:49.315Z,24.50
2023-02-23T09:35:18.526Z,24.55
2023-02-23T09:37:50.582Z,27.17
2023-02-23T09:40:23.565Z,26.83
2023-02-23T09:43:04.367Z,25.27
2023-02-23T09:48:18.299Z,27.10
2023-02-23T09:50:51.330Z,28.98
2023-02-23T09:53:38.417Z,29.08
2023-02-23T09:56:14.931Z,27.90
2023-02-23T09:58:43.840Z,26.05
2023-02-23T10:01:46.324Z,25.90
2023-02-23T10:04:22.232Z,28.88
2023-02-23T10:06:58.585Z,28.02
2023-02-23T10:09:50.136Z,26.17
2023-02-23T10:12:29.088Z,26.17
2023-02-23T10:15:12.911Z,25.33
2023-02-23T10:17:50.214Z,27.90
2023-02-23T10:20:28.637Z,23.80
2023-02-23T10:23:04.863Z,26.15
2023-02-23T10:25:41.691Z,26.92
2023-02-23T10:28:16.592Z,28.45
2023-02-23T10:30:46.746Z,23.08
2023-02-23T10:33:22.537Z,29.95
2023-02-23T10:36:07.384Z,29.58
2023-02-23T10:38:40.273Z,28.38
2023-02-23T10:41:14.650Z,29.15
2023-02-23T10:43:43.555Z,32.33
2023-02-23T10:46:22.246Z,29.70
2023-02-23T10:48:52.273Z,32.47
2023-02-23T10:51:29.537Z,31.67
2023-02-23T10:54:04.980Z,30.08
2023-02-23T10:56:45.892Z,29.45
2023-02-23T10:59:21.409Z,30.33
2023-02-23T11:02:01.387Z,30.73
2023-02-23T11:07:10.689Z,34.78
2023-02-23T11:09:47.072Z,28.10
2023-02-23T11:12:25.539Z,33.45
2023-02-23T11:14:56.007Z,28.48
2023-02-23T11:17:32.923Z,35.72
2023-02-23T11:20:09.047Z,33.15
2023-02-23T11:22:42.144Z,33.70
2023-02-23T11:25:18.801Z,31.80
2023-02-23T11:27:51.711Z,35.42
2023-02-23T11:30:24.549Z,35.05
2023-02-23T11:32:55.874Z,34.55
2023-02-23T11:35:31.641Z,35.03
2023-02-23T11:38:00.703Z,41.05
2023-02-23T11:40:32.616Z,35.42
2023-02-23T11:43:14.254Z,35.33
2023-02-23T11:45:49.687Z,38.58
2023-02-23T11:48:30.043Z,32.83
2023-02-23T11:50:59.404Z,31.98
2023-02-23T11:53:33.762Z,37.03
2023-02-23T11:56:08.028Z,40.92
2023-02-23T11:58:42.319Z,38.38
2023-02-23T12:01:13.793Z,39.00
2023-02-23T12:03:49.301Z,42.13
2023-02-23T12:06:30.445Z,47.13
2023-02-23T12:09:06.721Z,47.30
2023-02-23T12:11:42.323Z,46.10
2023-02-23T12:14:25.640Z,47.08
2023-02-23T12:16:58.656Z,42.85
2023-02-23T12:19:30.918Z,46.88
2023-02-23T12:22:07.610Z,51.90
2023-02-23T12:24:45.768Z,45.70
2023-02-23T12:27:22.406Z,52.35
2023-02-23T12:30:09.121Z,53.75
2023-02-23T12:32:47.828Z,52.22
2023-02-23T12:35:21.358Z,51.70
2023-02-23T12:37:54.721Z,55.72
2023-02-23T12:40:29.068Z,56.85
2023-02-23T12:43:05.588Z,57.10
2023-02-23T12:45:44.450Z,58.05
2023-02-23T12:48:29.496Z,59.78
2023-02-23T12:51:02.291Z,66.53
2023-02-23T12:53:43.245Z,66.43
2023-02-23T12:56:29.589Z,61.08
2023-02-23T12:59:13.399Z,65.95
2023-02-23T13:01:47.684Z,65.82
2023-02-23T13:04:45.752Z,63.88
2023-02-23T13:07:22.331Z,64.38
2023-02-23T13:10:05.421Z,60.20
2023-02-23T13:12:49.671Z,52.65
2023-02-23T13:15:31.280Z,51.00
2023-02-23T13:18:08.366Z,45.95
2023-02-23T13:20:43.192Z,49.30
2023-02-23T13:23:22.594Z,46.17
2023-02-23T13:26:00.645Z,40.22
2023-02-23T13:28:43.261Z,39.40
2023-02-23T13:31:24.801Z,34.17
2023-02-23T13:33:57.188Z,35.58
2023-02-23T13:36:27.563Z,40.13
2023-02-23T13:39:36.683Z,37.22
2023-02-23T13:42:36.773Z,28.20
2023-02-23T13:45:42.042Z,33.22
2023-02-23T13:48:25.672Z,30.27
2023-02-23T13:51:03.448Z,28.20
2023-02-23T13:53:44.117Z,31.00
2023-02-23T13:56:17.958Z,29.17
2023-02-23T13:58:50.358Z,38.85
2023-02-23T14:01:23.666Z,30.42
2023-02-23T14:03:58.031Z,29.33
2023-02-23T14:06:31.568Z,33.10
2023-02-23T14:09:08.203Z,32.80
2023-02-23T14:11:48.089Z,33.03
2023-02-23T14:14:42.151Z,32.30
2023-02-23T14:17:50.527Z,32.55
2023-02-23T14:20:50.790Z,36.00
2023-02-23T14:23:34.810Z,33.33
2023-02-23T14:26:37.191Z,29.05
2023-02-23T14:29:41.624Z,28.42
2023-02-23T14:32:40.469Z,26.55
2023-02-23T14:35:48.525Z,24.85
2023-02-23T14:38:47.045Z,20.63
2023-02-23T14:41:16.448Z,22.77
2023-02-23T14:43:46.513Z,20.60
2023-02-23T14:46:21.622Z,19.55
2023-02-23T14:49:10.180Z,24.13
2023-02-23T14:51:44.856Z,22.60
2023-02-23T14:54:25.168Z,24.50
2023-02-23T14:56:58.325Z,25.00
2023-02-23T14:59:31.220Z,21.27
2023-02-23T15:02:01.952Z,23.25
2023-02-23T15:07:03.154Z,15.13
2023-02-23T15:09:39.328Z,20.73
2023-02-23T15:12:18.409Z,15.20
2023-02-23T15:14:49.945Z,18.73
2023-02-23T15:17:22.052Z,19.52
2023-02-23T15:22:47.416Z,19.77
2023-02-23T15:25:20.345Z,24.65
2023-02-23T15:27:51.815Z,25.13
2023-02-23T15:30:24.895Z,27.85
2023-02-23T15:33:02.718Z,31.45
2023-02-23T15:35:32.725Z,39.53
2023-02-23T15:38:14.054Z,40.22
2023-02-23T15:40:55.854Z,45.22
2023-02-23T15:43:24.895Z,44.83
2023-02-23T15:45:55.824Z,43.97
2023-02-23T15:48:28.774Z,48.05
2023-02-23T15:50:58.843Z,54.25
2023-02-23T15:53:32.067Z,42.58
2023-02-23T15:56:14.360Z,46.55
2023-02-23T15:58:56.581Z,37.05
2023-02-23T16:01:27.736Z,49.72
2023-02-23T16:04:03.572Z,46.78
2023-02-23T16:06:38.141Z,47.20
2023-02-23T16:09:21.950Z,41.42
2023-02-23T16:11:55.817Z,46.30
2023-02-23T16:14:25.715Z,38.80
2023-02-23T16:17:10.941Z,36.05
2023-02-23T16:19:41.817Z,36.10
2023-02-23T16:22:22.472Z,42.92
2023-02-23T16:25:03.619Z,49.10
2023-02-23T16:27:33.665Z,46.75
2023-02-23T16:30:18.631Z,45.30
2023-02-23T16:32:47.440Z,47.10
2023-02-23T16:35:20.723Z,48.70
2023-02-23T16:37:59.722Z,48.92
2023-02-23T16:40:28.445Z,42.10
2023-02-23T16:42:59.594Z,48.92
2023-02-23T16:45:29.787Z,50.08
2023-02-23T16:48:02.342Z,37.08
2023-02-23T16:50:33.508Z,41.08
2023-02-23T16:53:03.533Z,47.65
2023-02-23T16:55:39.176Z,38.38
2023-02-23T16:58:15.710Z,39.28
2023-02-23T17:00:44.950Z,42.50
2023-02-23T17:03:20.344Z,41.38
2023-02-23T17:05:49.431Z,44.45
2023-02-23T17:08:18.154Z,44.17
2023-02-23T17:10:50.287Z,53.92
2023-02-23T17:13:22.334Z,49.30
2023-02-23T17:15:56.116Z,49.97
2023-02-23T17:18:27.510Z,48.75
2023-02-23T17:20:58.021Z,47.72
2023-02-23T17:23:30.038Z,57.53
2023-02-23T17:25:58.534Z,52.88
2023-02-23T17:28:28.292Z,48.00
2023-02-23T17:30:56.740Z,48.10
2023-02-23T17:33:27.218Z,46.10
2023-02-23T17:35:55.845Z,49.85
2023-02-23T17:38:29.477Z,38.72
2023-02-23T17:40:58.010Z,41.17
2023-02-23T17:43:27.761Z,50.58
2023-02-23T17:45:56.930Z,50.55
2023-02-23T17:48:26.932Z,38.30
2023-02-23T17:51:00.950Z,46.13
2023-02-23T17:53:29.797Z,41.50
2023-02-23T17:55:59.150Z,38.20
2023-02-23T17:58:29.760Z,38.72
2023-02-23T18:01:01.259Z,34.83
2023-02-23T18:03:33.129Z,32.25
2023-02-23T18:06:02.042Z,30.90
2023-02-23T18:08:30.529Z,34.63
2023-02-23T18:11:00.232Z,33.72
2023-02-23T18:13:33.267Z,33.38
2023-02-23T18:16:05.997Z,26.17
2023-02-23T18:18:34.534Z,31.20
2023-02-23T18:21:03.065Z,29.83
2023-02-23T18:23:32.814Z,24.98
2023-02-23T18:26:09.098Z,27.73
2023-02-23T18:28:41.048Z,33.83
2023-02-23T18:31:09.381Z,32.70
2023-02-23T18:33:37.872Z,20.33
2023-02-23T18:36:17.960Z,26.73
2023-02-23T18:38:46.419Z,22.40
2023-02-23T18:41:15.088Z,26.92
2023-02-23T18:43:45.123Z,36.53
2023-02-23T18:46:15.128Z,29.08
2023-02-23T18:48:44.479Z,29.65
2023-02-23T18:51:14.634Z,35.03
2023-02-23T18:53:44.654Z,28.65
2023-02-23T18:56:15.300Z,27.60
2023-02-23T19:01:18.043Z,27.60
2023-02-23T19:03:47.219Z,26.15
2023-02-23T19:06:16.153Z,36.80
2023-02-23T19:08:45.786Z,32.38
2023-02-23T19:11:14.213Z,26.95
2023-02-23T19:13:43.877Z,32.88
2023-02-23T19:16:12.257Z,29.92
2023-02-23T19:18:40.559Z,32.38
2023-02-23T19:21:09.342Z,34.88
2023-02-23T19:23:38.682Z,24.88
2023-02-23T19:26:07.763Z,33.63
2023-02-23T19:28:36.447Z,34.17
2023-02-23T19:31:09.294Z,22.98
2023-02-23T19:33:39.295Z,27.35
2023-02-23T19:36:09.617Z,29.08
2023-02-23T19:38:39.239Z,27.35
2023-02-23T19:41:08.182Z,22.03
2023-02-23T19:43:36.783Z,32.25
2023-02-23T19:46:08.409Z,26.35
2023-02-23T19:48:37.240Z,27.42
2023-02-23T19:51:06.443Z,31.50
2023-02-23T19:53:35.628Z,31.38
2023-02-23T19:56:07.859Z,26.40
2023-02-23T19:58:37.194Z,23.35
2023-02-23T20:01:09.645Z,31.98
2023-02-23T20:03:43.233Z,32.28
2023-02-23T20:06:14.015Z,29.85
2023-02-23T20:08:44.627Z,25.05
2023-02-23T20:11:15.481Z,26.60
2023-02-23T20:13:43.930Z,20.88
2023-02-23T20:16:15.674Z,28.48
2023-02-23T20:18:44.860Z,28.30
2023-02-23T20:21:16.194Z,28.73
2023-02-23T20:23:47.742Z,36.40
2023-02-23T20:26:20.492Z,24.73
2023-02-23T20:28:49.951Z,26.35
2023-02-23T20:31:25.657Z,25.40
2023-02-23T20:33:54.842Z,31.52
2023-02-23T20:36:24.502Z,31.10
2023-02-23T20:38:53.616Z,32.03
2023-02-23T20:41:22.781Z,28.95
2023-02-23T20:43:51.962Z,32.55
2023-02-23T20:46:21.890Z,25.10
2023-02-23T20:48:50.242Z,30.20
2023-02-23T20:51:20.069Z,31.60
2023-02-23T20:53:49.888Z,27.63
2023-02-23T20:56:23.545Z,33.05
2023-02-23T20:58:54.568Z,28.77
2023-02-23T21:01:27.143Z,35.05
2023-02-23T21:03:59.595Z,26.17
2023-02-23T21:06:30.262Z,31.27
2023-02-23T21:11:33.925Z,19.60
2023-02-23T21:14:02.259Z,29.80
2023-02-23T21:16:32.304Z,31.27
2023-02-23T21:19:05.258Z,42.15
2023-02-23T21:21:39.416Z,23.10
2023-02-23T21:24:08.743Z,26.15
2023-02-23T21:26:37.401Z,23.85
2023-02-23T21:29:11.663Z,26.85
2023-02-23T21:31:42.423Z,27.13
2023-02-23T21:34:11.471Z,24.08
2023-02-23T21:36:40.451Z,28.10
2023-02-23T21:39:09.518Z,27.50
2023-02-23T21:41:38.210Z,27.25
2023-02-23T21:44:09.079Z,24.25
2023-02-23T21:46:37.623Z,24.25
2023-02-23T21:49:10.096Z,24.45
2023-02-23T21:51:38.944Z,33.42
2023-02-23T21:54:07.424Z,22.35
2023-02-23T21:56:36.928Z,26.45
2023-02-23T21:59:08.155Z,26.70
2023-02-23T22:01:39.590Z,29.80
2023-02-23T22:04:12.540Z,26.35
2023-02-23T22:06:44.082Z,34.78
2023-02-23T22:09:15.650Z,20.88
2023-02-23T22:11:47.579Z,26.67
2023-02-23T22:14:18.055Z,27.38
2023-02-23T22:16:47.764Z,22.13
2023-02-23T22:19:19.348Z,21.20
2023-02-23T22:21:48.915Z,21.92
2023-02-23T22:24:18.163Z,20.70
2023-02-23T22:26:53.833Z,26.83
2023-02-23T22:29:24.095Z,23.55
2023-02-23T22:31:52.824Z,25.90
2023-02-23T22:34:22.788Z,26.42
2023-02-23T22:36:51.235Z,18.35
2023-02-23T22:39:20.240Z,27.15
2023-02-23T22:41:49.560Z,20.10
2023-02-23T22:44:21.524Z,20.42
2023-02-23T22:46:50.267Z,23.70
2023-02-23T22:49:19.857Z,20.05
2023-02-23T22:51:50.498Z,27.98
2023-02-23T22:54:20.503Z,26.13
2023-02-23T22:56:48.974Z,20.48
2023-02-23T22:59:20.272Z,22.17
2023-02-23T23:01:50.256Z,16.45
2023-02-23T23:04:21.891Z,14.45
2023-02-23T23:06:52.672Z,20.70
2023-02-23T23:09:21.838Z,23.02
2023-02-23T23:11:51.145Z,17.25
2023-02-23T23:14:20.383Z,16.27
2023-02-23T23:16:49.874Z,24.33
2023-02-23T23:19:24.058Z,18.42
2023-02-23T23:21:56.091Z,23.23
2023-02-23T23:24:25.689Z,18.83
2023-02-23T23:26:56.348Z,18.98
2023-02-23T23:31:57.129Z,17.38
2023-02-23T23:34:26.110Z,26.27
2023-02-23T23:36:56.813Z,20.17
2023-02-23T23:39:26.925Z,20.67
2023-02-23T23:41:55.707Z,17.20
2023-02-23T23:44:29.157Z,23.88
2023-02-23T23:46:58.029Z,21.33
2023-02-23T23:49:26.758Z,18.20
2023-02-23T23:51:57.897Z,19.33
2023-02-23T23:54:30.731Z,15.50
2023-02-23T23:57:01.424Z,15.27
2023-02-23T23:59:31.791Z,14.27
